Angwin, California
Current Conditions -  °F | °C
As of 11:25 PM on Thursday 30 Oct 2014 (Local Time) from KSTS Reporting Station
Overcast Overcast  
Wind Chill: 16°   Ceiling: 3100
Heat Index: 16°   Visibility: 10mi
Dew Point: 14°   Wind: 0mph
Humidity: 88%   Direction: NA
Pressure: 29.89"   Gusts: NA
Location:  38.58°N, 122.45°W
Report Text: KSTS 310625Z AUTO 00000KT 10SM SCT024 OVC031 16/14 A2989 RMK AO2
Loading
Personal Weather Stations






























Interactive Weather Map
Tropical Storm Tracking
New forecast layout! Learn more

10-Day Weather Forecast

Advertisements
Track Severe Weather on mobile